createdAt,value
2018-10-18T00:00:54.600Z,1019.21
2018-10-18T00:01:54.963Z,1019.21
2018-10-18T00:02:54.746Z,1019.2
2018-10-18T00:03:55.871Z,1019.18
2018-10-18T00:04:54.907Z,1019.15
2018-10-18T00:05:54.854Z,1019.18
2018-10-18T00:06:55.337Z,1019.17
2018-10-18T00:07:55.277Z,1019.17
2018-10-18T00:08:54.775Z,1019.16
2018-10-18T00:09:54.780Z,1019.17
2018-10-18T00:10:54.857Z,1019.14
2018-10-18T00:11:54.702Z,1019.1
2018-10-18T00:12:54.552Z,1019.15
2018-10-18T00:13:54.750Z,1019.16
2018-10-18T00:14:54.691Z,1019.12
2018-10-18T00:15:54.747Z,1019.08
2018-10-18T00:16:54.756Z,1019.11
2018-10-18T00:17:54.861Z,1019.12
2018-10-18T00:18:54.899Z,1019.09
2018-10-18T00:19:54.987Z,1019.13
2018-10-18T00:20:54.545Z,1019.09
2018-10-18T00:21:54.657Z,1019.16
2018-10-18T00:22:54.709Z,1019.1
2018-10-18T00:23:55.012Z,1019.17
2018-10-18T00:24:54.681Z,1019.1
2018-10-18T00:25:54.805Z,1019.12
2018-10-18T00:26:54.692Z,1019.11
2018-10-18T00:27:54.658Z,1019.14
2018-10-18T00:28:54.667Z,1019.16
2018-10-18T00:29:56.115Z,1019.11
2018-10-18T00:30:54.891Z,1019.14
2018-10-18T00:31:54.957Z,1019.1
2018-10-18T00:32:54.705Z,1019.14
2018-10-18T00:33:54.747Z,1019.09
2018-10-18T00:34:55.840Z,1019.12
2018-10-18T00:35:54.867Z,1019.13
2018-10-18T00:36:54.709Z,1019.11
2018-10-18T00:37:54.839Z,1019.15
2018-10-18T00:38:54.675Z,1019.13
2018-10-18T00:39:54.689Z,1019.11
2018-10-18T00:40:54.642Z,1019.08
2018-10-18T00:41:54.862Z,1019.16
2018-10-18T00:42:54.536Z,1019.08
2018-10-18T00:43:54.728Z,1019.05
2018-10-18T00:44:54.729Z,1019.11
2018-10-18T00:45:54.591Z,1019.14
2018-10-18T00:46:54.667Z,1019.07
2018-10-18T00:47:55.084Z,1019.1
2018-10-18T00:48:54.700Z,1019.1
2018-10-18T00:49:54.899Z,1019.08
2018-10-18T00:50:54.807Z,1019.11
2018-10-18T00:51:54.721Z,1019.13
2018-10-18T00:52:54.935Z,1019.1
2018-10-18T00:53:54.712Z,1019.17
2018-10-18T00:54:54.957Z,1019.12
2018-10-18T00:55:54.705Z,1019.11
2018-10-18T00:56:54.677Z,1019.12
2018-10-18T00:57:55.852Z,1019.19
2018-10-18T00:58:54.921Z,1019.16
2018-10-18T00:59:54.736Z,1019.17
2018-10-18T01:00:54.717Z,1019.16
2018-10-18T01:01:54.647Z,1019.12
2018-10-18T01:02:54.704Z,1019.17
2018-10-18T01:03:54.752Z,1019.11
2018-10-18T01:04:54.606Z,1019.16
2018-10-18T01:05:54.683Z,1019.15
2018-10-18T01:06:54.706Z,1019.15
2018-10-18T01:07:54.585Z,1019.13
2018-10-18T01:08:54.657Z,1019.08
2018-10-18T01:09:54.850Z,1019.08
2018-10-18T01:10:54.710Z,1019.05
2018-10-18T01:11:55.243Z,1019.08
2018-10-18T01:12:54.857Z,1019.08
2018-10-18T01:13:55.124Z,1019.07
2018-10-18T01:14:54.690Z,1019.04
2018-10-18T01:15:54.615Z,1019.02
2018-10-18T01:16:54.606Z,1018.99
2018-10-18T01:17:54.785Z,1019.04
2018-10-18T01:18:54.633Z,1019.02
2018-10-18T01:19:54.821Z,1019
2018-10-18T01:20:54.588Z,1019.02
2018-10-18T01:21:54.448Z,1019
2018-10-18T01:22:54.600Z,1019.03
2018-10-18T01:23:54.885Z,1018.98
2018-10-18T01:24:54.522Z,1019.03
2018-10-18T01:25:54.792Z,1019.01
2018-10-18T01:26:54.532Z,1018.98
2018-10-18T01:27:54.637Z,1018.99
2018-10-18T01:28:55.194Z,1019.03
2018-10-18T01:29:54.960Z,1019
2018-10-18T01:30:54.706Z,1019.02
2018-10-18T01:31:54.894Z,1019.07
2018-10-18T01:32:54.699Z,1019.05
2018-10-18T01:33:54.627Z,1019.03
2018-10-18T01:34:54.589Z,1019.02
2018-10-18T01:35:54.824Z,1019
2018-10-18T01:36:55.043Z,1018.99
2018-10-18T01:37:55.005Z,1018.99
2018-10-18T01:38:54.487Z,1019
2018-10-18T01:39:54.597Z,1018.99
2018-10-18T01:40:54.540Z,1019.01
2018-10-18T01:41:54.954Z,1019.01
2018-10-18T01:42:54.706Z,1019.01
2018-10-18T01:43:55.074Z,1019.03
2018-10-18T01:44:54.564Z,1019.01
2018-10-18T01:45:54.686Z,1019.02
2018-10-18T01:46:54.739Z,1019.03
2018-10-18T01:47:55.299Z,1019.02
2018-10-18T01:48:54.609Z,1019.01
2018-10-18T01:49:54.643Z,1019.01
2018-10-18T01:50:54.987Z,1019.02
2018-10-18T01:51:54.571Z,1018.97
2018-10-18T01:52:54.613Z,1018.99
2018-10-18T01:53:54.635Z,1018.98
2018-10-18T01:54:54.673Z,1018.96
2018-10-18T01:55:54.940Z,1018.94
2018-10-18T01:56:54.539Z,1018.92
2018-10-18T01:57:54.567Z,1018.96
2018-10-18T01:58:54.551Z,1018.95
2018-10-18T01:59:55.997Z,1018.94
2018-10-18T02:00:54.589Z,1018.93
2018-10-18T02:01:54.891Z,1018.89
2018-10-18T02:02:54.654Z,1018.87
2018-10-18T02:03:54.539Z,1018.89
2018-10-18T02:04:54.617Z,1018.9
2018-10-18T02:05:54.970Z,1018.96
2018-10-18T02:06:54.504Z,1018.99
2018-10-18T02:07:54.774Z,1018.92
2018-10-18T02:08:55.066Z,1018.93
2018-10-18T02:09:54.787Z,1018.97
2018-10-18T02:10:54.779Z,1018.93
2018-10-18T02:11:54.741Z,1018.95
2018-10-18T02:12:54.603Z,1018.93
2018-10-18T02:13:54.491Z,1018.89
2018-10-18T02:14:54.990Z,1018.89
2018-10-18T02:15:54.718Z,1018.95
2018-10-18T02:16:54.514Z,1018.89
2018-10-18T02:17:55.152Z,1018.91
2018-10-18T02:18:54.817Z,1018.91
2018-10-18T02:19:54.682Z,1018.94
2018-10-18T02:20:54.663Z,1018.94
2018-10-18T02:21:54.618Z,1018.94
2018-10-18T02:22:54.581Z,1018.93
2018-10-18T02:23:54.612Z,1018.97
2018-10-18T02:24:54.736Z,1018.96
2018-10-18T02:25:54.609Z,1018.92
2018-10-18T02:26:54.600Z,1018.95
2018-10-18T02:27:54.578Z,1018.95
2018-10-18T02:28:54.681Z,1018.96
2018-10-18T02:29:55.281Z,1018.94
2018-10-18T02:30:54.586Z,1018.92
2018-10-18T02:31:54.705Z,1018.91
2018-10-18T02:32:54.571Z,1018.93
2018-10-18T02:33:54.521Z,1018.92
2018-10-18T02:34:55.049Z,1018.92
2018-10-18T02:35:55.108Z,1018.93
2018-10-18T02:36:54.642Z,1018.87
2018-10-18T02:37:54.662Z,1018.89
2018-10-18T02:38:54.626Z,1018.84
2018-10-18T02:39:54.444Z,1018.88
2018-10-18T02:40:54.581Z,1018.91
2018-10-18T02:41:54.993Z,1018.91
2018-10-18T02:42:54.835Z,1018.95
2018-10-18T02:43:54.901Z,1018.94
2018-10-18T02:44:54.677Z,1018.93
2018-10-18T02:45:54.643Z,1018.91
2018-10-18T02:46:54.812Z,1018.89
2018-10-18T02:47:55.552Z,1018.89
2018-10-18T02:48:54.566Z,1018.89
2018-10-18T02:49:54.880Z,1018.88
2018-10-18T02:50:54.671Z,1018.86
2018-10-18T02:51:54.729Z,1018.83
2018-10-18T02:52:54.454Z,1018.87
2018-10-18T02:53:54.728Z,1018.84
2018-10-18T02:54:54.856Z,1018.84
2018-10-18T02:55:54.837Z,1018.82
2018-10-18T02:56:54.976Z,1018.84
2018-10-18T02:57:54.573Z,1018.87
2018-10-18T02:58:54.840Z,1018.87
2018-10-18T02:59:54.684Z,1018.91
2018-10-18T03:00:54.494Z,1018.9
2018-10-18T03:01:54.700Z,1018.9
2018-10-18T03:02:54.816Z,1018.91
2018-10-18T03:03:54.719Z,1018.96
2018-10-18T03:04:54.650Z,1018.92
2018-10-18T03:05:54.889Z,1018.92
2018-10-18T03:06:54.584Z,1018.9
2018-10-18T03:07:54.567Z,1018.97
2018-10-18T03:08:54.833Z,1018.95
2018-10-18T03:09:54.796Z,1018.96
2018-10-18T03:10:54.520Z,1019
2018-10-18T03:11:54.870Z,1019
2018-10-18T03:12:55.022Z,1018.97
2018-10-18T03:13:54.584Z,1018.95
2018-10-18T03:14:54.751Z,1018.98
2018-10-18T03:15:55.099Z,1018.97
2018-10-18T03:16:54.638Z,1019
2018-10-18T03:17:54.938Z,1018.98
2018-10-18T03:18:54.440Z,1019.02
2018-10-18T03:19:54.564Z,1018.99
2018-10-18T03:20:54.566Z,1019
2018-10-18T03:21:54.537Z,1019.02
2018-10-18T03:22:54.706Z,1019.05
2018-10-18T03:23:54.960Z,1019.02
2018-10-18T03:24:54.716Z,1019.05
2018-10-18T03:25:54.685Z,1019.05
2018-10-18T03:26:54.577Z,1019.07
2018-10-18T03:27:54.664Z,1019.07
2018-10-18T03:28:54.927Z,1019.14
2018-10-18T03:29:54.704Z,1019.15
2018-10-18T03:30:54.631Z,1019.16
2018-10-18T03:31:54.741Z,1019.14
2018-10-18T03:32:54.622Z,1019.16
2018-10-18T03:33:54.725Z,1019.16
2018-10-18T03:34:54.611Z,1019.16
2018-10-18T03:35:54.754Z,1019.18
2018-10-18T03:36:54.760Z,1019.16
2018-10-18T03:37:54.582Z,1019.2
2018-10-18T03:38:54.967Z,1019.19
2018-10-18T03:39:54.561Z,1019.23
2018-10-18T03:40:54.612Z,1019.18
2018-10-18T03:41:55.019Z,1019.2
2018-10-18T03:42:54.825Z,1019.2
2018-10-18T03:43:54.597Z,1019.22
2018-10-18T03:44:54.525Z,1019.25
2018-10-18T03:45:54.649Z,1019.26
2018-10-18T03:46:54.899Z,1019.22
2018-10-18T03:47:54.954Z,1019.23
2018-10-18T03:48:54.629Z,1019.29
2018-10-18T03:49:54.576Z,1019.28
2018-10-18T03:50:54.726Z,1019.28
2018-10-18T03:51:54.623Z,1019.32
2018-10-18T03:52:54.898Z,1019.32
2018-10-18T03:53:54.691Z,1019.25
2018-10-18T03:54:54.517Z,1019.33
2018-10-18T03:55:54.676Z,1019.31
2018-10-18T03:56:54.734Z,1019.3
2018-10-18T03:57:54.689Z,1019.31
2018-10-18T03:58:54.581Z,1019.3
2018-10-18T03:59:54.910Z,1019.29
2018-10-18T04:00:54.933Z,1019.28
2018-10-18T04:01:54.476Z,1019.28
2018-10-18T04:02:54.522Z,1019.3
2018-10-18T04:03:54.861Z,1019.34
2018-10-18T04:04:54.592Z,1019.25
2018-10-18T04:05:54.868Z,1019.3
2018-10-18T04:06:54.718Z,1019.31
2018-10-18T04:07:54.894Z,1019.3
2018-10-18T04:08:54.721Z,1019.27
2018-10-18T04:09:54.528Z,1019.33
2018-10-18T04:10:54.722Z,1019.32
2018-10-18T04:11:54.687Z,1019.34
2018-10-18T04:12:55.419Z,1019.32
2018-10-18T04:13:54.656Z,1019.33
2018-10-18T04:14:54.525Z,1019.35
2018-10-18T04:15:54.733Z,1019.34
2018-10-18T04:16:54.554Z,1019.34
2018-10-18T04:17:54.830Z,1019.33
2018-10-18T04:18:54.871Z,1019.31
2018-10-18T04:19:54.743Z,1019.3
2018-10-18T04:20:54.680Z,1019.29
2018-10-18T04:21:54.890Z,1019.33
2018-10-18T04:22:54.576Z,1019.28
2018-10-18T04:23:54.784Z,1019.29
2018-10-18T04:24:54.623Z,1019.29
2018-10-18T04:25:54.960Z,1019.29
2018-10-18T04:26:54.985Z,1019.31
2018-10-18T04:27:54.849Z,1019.3
2018-10-18T04:28:54.557Z,1019.28
2018-10-18T04:29:54.664Z,1019.29
2018-10-18T04:30:54.585Z,1019.32
2018-10-18T04:31:54.972Z,1019.29
2018-10-18T04:32:54.700Z,1019.3
2018-10-18T04:33:54.545Z,1019.31
2018-10-18T04:34:54.589Z,1019.3
2018-10-18T04:35:54.888Z,1019.31
2018-10-18T04:36:54.675Z,1019.35
2018-10-18T04:37:54.801Z,1019.32
2018-10-18T04:38:54.506Z,1019.36
2018-10-18T04:39:54.610Z,1019.33
2018-10-18T04:40:54.749Z,1019.3
2018-10-18T04:41:54.532Z,1019.33
2018-10-18T04:42:54.505Z,1019.33
2018-10-18T04:43:54.473Z,1019.34
2018-10-18T04:44:54.553Z,1019.36
2018-10-18T04:45:54.639Z,1019.41
2018-10-18T04:46:54.639Z,1019.41
2018-10-18T04:47:55.105Z,1019.36
2018-10-18T04:48:55.219Z,1019.36
2018-10-18T04:49:54.553Z,1019.38
2018-10-18T04:50:54.567Z,1019.4
2018-10-18T04:51:54.570Z,1019.41
2018-10-18T04:52:54.658Z,1019.37
2018-10-18T04:53:54.913Z,1019.39
2018-10-18T04:54:54.600Z,1019.41
2018-10-18T04:55:54.598Z,1019.39
2018-10-18T04:56:55.072Z,1019.41
2018-10-18T04:57:54.554Z,1019.4
2018-10-18T04:58:54.753Z,1019.4
2018-10-18T04:59:54.782Z,1019.42
2018-10-18T05:00:54.848Z,1019.4
2018-10-18T05:01:54.643Z,1019.38
2018-10-18T05:02:54.586Z,1019.37
2018-10-18T05:03:54.880Z,1019.37
2018-10-18T05:04:54.858Z,1019.38
2018-10-18T05:05:54.490Z,1019.39
2018-10-18T05:06:54.674Z,1019.38
2018-10-18T05:07:54.608Z,1019.39
2018-10-18T05:08:54.486Z,1019.36
2018-10-18T05:09:54.722Z,1019.35
2018-10-18T05:10:54.607Z,1019.42
2018-10-18T05:11:54.548Z,1019.37
2018-10-18T05:12:54.742Z,1019.37
2018-10-18T05:13:54.475Z,1019.42
2018-10-18T05:14:54.377Z,1019.37
2018-10-18T05:15:54.563Z,1019.39
2018-10-18T05:16:55.075Z,1019.39
2018-10-18T05:17:54.549Z,1019.4
2018-10-18T05:18:54.998Z,1019.42
2018-10-18T05:19:54.868Z,1019.43
2018-10-18T05:20:54.469Z,1019.43
2018-10-18T05:21:54.409Z,1019.47
2018-10-18T05:22:54.655Z,1019.46
2018-10-18T05:23:54.787Z,1019.43
2018-10-18T05:24:54.934Z,1019.43
2018-10-18T05:25:54.528Z,1019.48
2018-10-18T05:26:54.831Z,1019.45
2018-10-18T05:27:54.604Z,1019.49
2018-10-18T05:28:54.876Z,1019.51
2018-10-18T05:29:54.523Z,1019.53
2018-10-18T05:30:54.727Z,1019.53
2018-10-18T05:31:54.652Z,1019.58
2018-10-18T05:32:54.486Z,1019.6
2018-10-18T05:33:54.881Z,1019.58
2018-10-18T05:34:54.518Z,1019.64
2018-10-18T05:35:54.677Z,1019.66
2018-10-18T05:36:54.612Z,1019.69
2018-10-18T05:37:54.770Z,1019.67
2018-10-18T05:38:54.639Z,1019.7
2018-10-18T05:39:54.860Z,1019.7
2018-10-18T05:40:54.557Z,1019.79
2018-10-18T05:41:54.630Z,1019.8
2018-10-18T05:42:55.261Z,1019.8
2018-10-18T05:43:54.491Z,1019.81
2018-10-18T05:44:54.823Z,1019.79
2018-10-18T05:45:54.653Z,1019.78
2018-10-18T05:46:55.185Z,1019.85
2018-10-18T05:47:54.534Z,1019.82
2018-10-18T05:48:54.358Z,1019.84
2018-10-18T05:49:54.528Z,1019.88
2018-10-18T05:50:54.501Z,1019.85
2018-10-18T05:51:54.695Z,1019.87
2018-10-18T05:52:54.802Z,1019.86
2018-10-18T05:53:55.890Z,1019.83
2018-10-18T05:54:54.928Z,1019.86
2018-10-18T05:55:54.835Z,1019.86
2018-10-18T05:56:54.450Z,1019.87
2018-10-18T05:57:54.401Z,1019.87
2018-10-18T05:58:54.647Z,1019.84
2018-10-18T05:59:54.580Z,1019.87
2018-10-18T06:00:54.781Z,1019.92
2018-10-18T06:01:54.545Z,1019.89
2018-10-18T06:02:54.585Z,1019.89
2018-10-18T06:03:54.598Z,1019.94
2018-10-18T06:04:54.716Z,1019.97
2018-10-18T06:05:54.584Z,1019.97
2018-10-18T06:06:54.653Z,1019.99
2018-10-18T06:07:54.634Z,1019.98
2018-10-18T06:08:54.638Z,1020.01
2018-10-18T06:09:55.081Z,1020.02
2018-10-18T06:10:54.537Z,1020.08
2018-10-18T06:11:54.540Z,1020.05
2018-10-18T06:12:54.633Z,1020.03
2018-10-18T06:13:54.661Z,1020.06
2018-10-18T06:14:54.639Z,1020.11
2018-10-18T06:15:54.409Z,1020.12
2018-10-18T06:16:54.562Z,1020.14
2018-10-18T06:17:54.694Z,1020.1
2018-10-18T06:18:54.797Z,1020.16
2018-10-18T06:19:54.709Z,1020.18
2018-10-18T06:20:54.572Z,1020.25
2018-10-18T06:21:54.944Z,1020.25
2018-10-18T06:22:54.861Z,1020.26
2018-10-18T06:23:54.679Z,1020.25
2018-10-18T06:24:54.595Z,1020.31
2018-10-18T06:25:54.505Z,1020.3
2018-10-18T06:26:54.553Z,1020.3
2018-10-18T06:27:54.585Z,1020.33
2018-10-18T06:28:54.757Z,1020.37
2018-10-18T06:29:54.646Z,1020.33
2018-10-18T06:30:54.881Z,1020.4
2018-10-18T06:31:54.567Z,1020.42
2018-10-18T06:32:54.590Z,1020.42
2018-10-18T06:33:54.918Z,1020.45
2018-10-18T06:34:54.596Z,1020.48
2018-10-18T06:35:54.517Z,1020.5
2018-10-18T06:36:54.671Z,1020.48
2018-10-18T06:37:54.565Z,1020.48
2018-10-18T06:38:54.889Z,1020.49
2018-10-18T06:39:54.544Z,1020.49
2018-10-18T06:40:54.520Z,1020.51
2018-10-18T06:41:54.547Z,1020.51
2018-10-18T06:42:54.685Z,1020.55
2018-10-18T06:43:54.566Z,1020.57
2018-10-18T06:44:54.347Z,1020.57
2018-10-18T06:45:54.320Z,1020.57
2018-10-18T06:46:55.103Z,1020.61
2018-10-18T06:47:55.912Z,1020.62
2018-10-18T06:48:55.114Z,1020.65
2018-10-18T06:49:54.492Z,1020.62
2018-10-18T06:50:54.340Z,1020.64
2018-10-18T06:51:54.823Z,1020.63
2018-10-18T06:52:54.640Z,1020.65
2018-10-18T06:53:54.728Z,1020.7
2018-10-18T06:54:54.920Z,1020.69
2018-10-18T06:55:54.577Z,1020.75
2018-10-18T06:56:54.842Z,1020.75
2018-10-18T06:57:54.648Z,1020.75
2018-10-18T06:58:54.519Z,1020.75
2018-10-18T06:59:55.187Z,1020.8
2018-10-18T07:00:54.393Z,1020.81
2018-10-18T07:01:54.596Z,1020.78
2018-10-18T07:02:54.461Z,1020.8
2018-10-18T07:03:54.564Z,1020.77
2018-10-18T07:04:54.827Z,1020.81
2018-10-18T07:05:54.721Z,1020.79
2018-10-18T07:06:54.516Z,1020.77
2018-10-18T07:07:55.136Z,1020.79
2018-10-18T07:08:55.075Z,1020.79
2018-10-18T07:09:54.666Z,1020.8
2018-10-18T07:10:55.416Z,1020.82
2018-10-18T07:11:55.101Z,1020.82
2018-10-18T07:12:54.502Z,1020.83
2018-10-18T07:13:54.492Z,1020.83
2018-10-18T07:14:54.572Z,1020.83
2018-10-18T07:15:54.812Z,1020.82
2018-10-18T07:16:54.454Z,1020.83
2018-10-18T07:17:54.771Z,1020.79
2018-10-18T07:18:54.481Z,1020.8
2018-10-18T07:19:54.706Z,1020.8
2018-10-18T07:20:54.585Z,1020.77
2018-10-18T07:21:54.548Z,1020.74
2018-10-18T07:22:54.739Z,1020.74
2018-10-18T07:23:54.858Z,1020.75
2018-10-18T07:24:54.464Z,1020.79
2018-10-18T07:25:54.693Z,1020.7
2018-10-18T07:26:54.456Z,1020.71
2018-10-18T07:27:54.550Z,1020.8
2018-10-18T07:28:54.590Z,1020.73
2018-10-18T07:29:54.436Z,1020.76
2018-10-18T07:30:54.732Z,1020.79
2018-10-18T07:31:54.613Z,1020.73
2018-10-18T07:32:54.710Z,1020.79
2018-10-18T07:33:55.138Z,1020.74
2018-10-18T07:34:54.799Z,1020.78
2018-10-18T07:35:54.846Z,1020.78
2018-10-18T07:36:54.513Z,1020.72
2018-10-18T07:37:54.648Z,1020.69
2018-10-18T07:38:54.507Z,1020.71
2018-10-18T07:39:54.615Z,1020.76
2018-10-18T07:40:54.570Z,1020.73
2018-10-18T07:41:54.787Z,1020.69
2018-10-18T07:42:54.353Z,1020.72
2018-10-18T07:43:54.899Z,1020.67
2018-10-18T07:44:54.436Z,1020.68
2018-10-18T07:45:54.565Z,1020.78
2018-10-18T07:46:54.949Z,1020.79
2018-10-18T07:47:55.236Z,1020.77
2018-10-18T07:48:54.551Z,1020.8
2018-10-18T07:49:54.519Z,1020.83
2018-10-18T07:50:54.557Z,1020.82
2018-10-18T07:51:54.485Z,1020.83
2018-10-18T07:52:54.737Z,1020.81
2018-10-18T07:53:54.762Z,1020.82
2018-10-18T07:54:54.557Z,1020.78
2018-10-18T07:55:54.584Z,1020.85
2018-10-18T07:56:54.284Z,1020.83
2018-10-18T07:57:54.459Z,1020.76
2018-10-18T07:58:54.615Z,1020.83
2018-10-18T07:59:55.026Z,1020.78
2018-10-18T08:00:54.563Z,1020.79
2018-10-18T08:01:54.692Z,1020.79
2018-10-18T08:02:54.711Z,1020.77
2018-10-18T08:03:54.377Z,1020.83
2018-10-18T08:04:54.312Z,1020.81
2018-10-18T08:05:54.546Z,1020.84
2018-10-18T08:06:54.651Z,1020.84
2018-10-18T08:07:54.462Z,1020.86
2018-10-18T08:08:54.429Z,1020.82
2018-10-18T08:09:54.645Z,1020.85
2018-10-18T08:10:54.747Z,1020.85
2018-10-18T08:11:54.716Z,1020.81
2018-10-18T08:12:54.627Z,1020.85
2018-10-18T08:13:54.972Z,1020.87
2018-10-18T08:14:54.545Z,1020.83
2018-10-18T08:15:54.629Z,1020.84
2018-10-18T08:16:55.232Z,1020.91
2018-10-18T08:17:54.612Z,1020.88
2018-10-18T08:18:54.783Z,1020.9
2018-10-18T08:19:54.582Z,1020.89
2018-10-18T08:20:54.413Z,1020.9
2018-10-18T08:21:54.746Z,1020.86
2018-10-18T08:22:54.520Z,1020.87
2018-10-18T08:23:54.537Z,1020.86
2018-10-18T08:24:54.790Z,1020.89
2018-10-18T08:25:54.586Z,1020.88
2018-10-18T08:26:54.718Z,1020.85
2018-10-18T08:27:54.631Z,1020.9
2018-10-18T08:28:54.583Z,1020.88
2018-10-18T08:29:54.661Z,1020.88
2018-10-18T08:30:54.688Z,1020.87
2018-10-18T08:31:54.915Z,1020.88
2018-10-18T08:32:54.552Z,1020.86
2018-10-18T08:33:54.443Z,1020.86
2018-10-18T08:34:54.519Z,1020.85
2018-10-18T08:35:54.371Z,1020.92
2018-10-18T08:36:54.754Z,1020.91
2018-10-18T08:37:55.324Z,1020.91
2018-10-18T08:38:54.492Z,1020.87
2018-10-18T08:39:54.679Z,1020.93
2018-10-18T08:40:54.787Z,1020.94
2018-10-18T08:41:54.633Z,1020.92
2018-10-18T08:42:54.664Z,1020.93
2018-10-18T08:43:54.844Z,1020.96
2018-10-18T08:44:54.483Z,1020.91
2018-10-18T08:45:54.434Z,1020.93
2018-10-18T08:46:54.536Z,1020.93
2018-10-18T08:47:54.773Z,1020.91
2018-10-18T08:48:54.602Z,1020.93
2018-10-18T08:49:54.945Z,1020.94
2018-10-18T08:50:54.360Z,1020.87
2018-10-18T08:51:54.447Z,1020.91
2018-10-18T08:52:54.687Z,1020.92
2018-10-18T08:53:54.330Z,1020.9
2018-10-18T08:54:54.939Z,1020.93
2018-10-18T08:55:54.914Z,1020.93
2018-10-18T08:56:54.344Z,1020.94
2018-10-18T08:57:54.323Z,1020.92
2018-10-18T08:58:54.503Z,1020.92
2018-10-18T08:59:54.425Z,1020.93
2018-10-18T09:00:54.857Z,1020.89
2018-10-18T09:01:54.612Z,1020.93
2018-10-18T09:02:54.600Z,1020.93
2018-10-18T09:03:54.387Z,1020.95
2018-10-18T09:04:54.590Z,1020.97
2018-10-18T09:05:54.672Z,1020.97
2018-10-18T09:06:54.577Z,1020.98
2018-10-18T09:07:54.575Z,1020.95
2018-10-18T09:08:54.874Z,1020.97
2018-10-18T09:09:54.679Z,1020.95
2018-10-18T09:10:54.705Z,1020.95
2018-10-18T09:11:54.691Z,1021
2018-10-18T09:12:54.518Z,1020.99
2018-10-18T09:13:54.418Z,1021
2018-10-18T09:14:54.584Z,1021.01
2018-10-18T09:15:54.985Z,1020.97
2018-10-18T09:16:54.546Z,1021.01
2018-10-18T09:17:54.623Z,1020.98
2018-10-18T09:18:54.752Z,1020.96
2018-10-18T09:19:54.332Z,1020.91
2018-10-18T09:20:54.748Z,1020.89
2018-10-18T09:21:54.631Z,1020.95
2018-10-18T09:22:54.575Z,1020.93
2018-10-18T09:23:54.958Z,1020.91
2018-10-18T09:24:54.788Z,1020.88
2018-10-18T09:25:54.324Z,1020.89
2018-10-18T09:26:54.308Z,1020.92
2018-10-18T09:27:54.490Z,1020.91
2018-10-18T09:28:54.718Z,1020.9
2018-10-18T09:29:54.346Z,1020.85
2018-10-18T09:30:54.873Z,1020.87
2018-10-18T09:31:54.501Z,1020.85
2018-10-18T09:32:54.818Z,1020.82
2018-10-18T09:33:54.637Z,1020.81
2018-10-18T09:34:54.454Z,1020.79
2018-10-18T09:35:54.472Z,1020.8
2018-10-18T09:36:54.556Z,1020.81
2018-10-18T09:37:54.548Z,1020.8
2018-10-18T09:38:54.715Z,1020.83
2018-10-18T09:39:54.679Z,1020.85
2018-10-18T09:40:54.678Z,1020.81
2018-10-18T09:41:54.651Z,1020.85
2018-10-18T09:42:55.039Z,1020.83
2018-10-18T09:43:54.550Z,1020.85
2018-10-18T09:44:55.330Z,1020.81
2018-10-18T09:45:54.927Z,1020.78
2018-10-18T09:46:54.785Z,1020.79
2018-10-18T09:47:54.358Z,1020.84
2018-10-18T09:48:54.928Z,1020.77
2018-10-18T09:49:54.524Z,1020.76
2018-10-18T09:50:54.730Z,1020.77
2018-10-18T09:51:54.547Z,1020.75
2018-10-18T09:52:55.053Z,1020.84
2018-10-18T09:53:54.347Z,1020.81
2018-10-18T09:54:54.778Z,1020.79
2018-10-18T09:55:55.131Z,1020.85
2018-10-18T09:56:54.651Z,1020.83
2018-10-18T09:57:54.704Z,1020.83
2018-10-18T09:58:54.285Z,1020.85
2018-10-18T09:59:54.468Z,1020.89
2018-10-18T10:00:54.712Z,1020.9
2018-10-18T10:01:54.279Z,1020.86
2018-10-18T10:02:54.187Z,1020.91
2018-10-18T10:03:54.679Z,1020.92
2018-10-18T10:04:54.771Z,1020.9
2018-10-18T10:05:54.524Z,1020.88
2018-10-18T10:06:54.681Z,1020.86
2018-10-18T10:07:54.355Z,1020.82
2018-10-18T10:08:54.407Z,1020.83
2018-10-18T10:09:54.622Z,1020.8
2018-10-18T10:10:54.252Z,1020.78
2018-10-18T10:11:54.886Z,1020.78
2018-10-18T10:12:55.084Z,1020.87
2018-10-18T10:13:54.554Z,1020.79
2018-10-18T10:14:54.368Z,1020.75
2018-10-18T10:15:54.259Z,1020.77
2018-10-18T10:16:54.849Z,1020.79
2018-10-18T10:17:54.412Z,1020.79
2018-10-18T10:18:54.828Z,1020.75
2018-10-18T10:19:54.318Z,1020.75
2018-10-18T10:20:54.314Z,1020.71
2018-10-18T10:21:54.602Z,1020.69
2018-10-18T10:22:54.608Z,1020.73
2018-10-18T10:23:54.809Z,1020.73
2018-10-18T10:24:54.215Z,1020.76
2018-10-18T10:25:54.361Z,1020.7
2018-10-18T10:26:54.530Z,1020.72
2018-10-18T10:27:54.445Z,1020.64
2018-10-18T10:28:54.392Z,1020.69
2018-10-18T10:29:54.649Z,1020.66
2018-10-18T10:30:54.717Z,1020.7
2018-10-18T10:31:54.470Z,1020.65
2018-10-18T10:32:54.623Z,1020.65
2018-10-18T10:33:54.331Z,1020.65
2018-10-18T10:34:54.699Z,1020.62
2018-10-18T10:35:54.578Z,1020.61
2018-10-18T10:36:54.867Z,1020.62
2018-10-18T10:37:54.382Z,1020.56
2018-10-18T10:38:54.516Z,1020.6
2018-10-18T10:39:54.724Z,1020.55
2018-10-18T10:40:54.597Z,1020.59
2018-10-18T10:41:54.419Z,1020.6
2018-10-18T10:42:54.964Z,1020.57
2018-10-18T10:43:54.663Z,1020.57
2018-10-18T10:44:54.338Z,1020.53
2018-10-18T10:45:54.810Z,1020.57
2018-10-18T10:46:54.337Z,1020.5
2018-10-18T10:47:54.674Z,1020.49
2018-10-18T10:48:54.371Z,1020.5
2018-10-18T10:49:54.490Z,1020.47
2018-10-18T10:50:54.489Z,1020.41
2018-10-18T10:51:54.917Z,1020.46
2018-10-18T10:52:54.248Z,1020.47
2018-10-18T10:53:54.630Z,1020.42
2018-10-18T10:54:54.495Z,1020.45
2018-10-18T10:55:54.814Z,1020.41
2018-10-18T10:56:54.535Z,1020.38
2018-10-18T10:57:54.687Z,1020.39
2018-10-18T10:58:54.671Z,1020.38
2018-10-18T10:59:54.358Z,1020.4
2018-10-18T11:00:54.492Z,1020.29
2018-10-18T11:01:54.647Z,1020.35
2018-10-18T11:02:54.652Z,1020.37
2018-10-18T11:03:54.806Z,1020.31
2018-10-18T11:04:54.376Z,1020.31
2018-10-18T11:05:54.546Z,1020.31
2018-10-18T11:06:54.447Z,1020.33
2018-10-18T11:07:54.462Z,1020.34
2018-10-18T11:08:54.442Z,1020.3
2018-10-18T11:09:54.551Z,1020.35
2018-10-18T11:10:54.648Z,1020.34
2018-10-18T11:11:54.761Z,1020.33
2018-10-18T11:12:54.618Z,1020.35
2018-10-18T11:13:54.452Z,1020.32
2018-10-18T11:14:54.767Z,1020.28
2018-10-18T11:15:54.943Z,1020.3
2018-10-18T11:16:54.475Z,1020.3
2018-10-18T11:17:54.543Z,1020.28
2018-10-18T11:18:54.350Z,1020.28
2018-10-18T11:19:54.444Z,1020.29
2018-10-18T11:20:54.917Z,1020.27
2018-10-18T11:21:54.542Z,1020.26
2018-10-18T11:22:54.396Z,1020.25
2018-10-18T11:23:54.421Z,1020.28
2018-10-18T11:24:55.060Z,1020.22
2018-10-18T11:25:54.765Z,1020.17
2018-10-18T11:26:54.440Z,1020.2
2018-10-18T11:27:54.200Z,1020.15
2018-10-18T11:28:54.880Z,1020.13
2018-10-18T11:29:54.837Z,1020.19
2018-10-18T11:30:54.186Z,1020.18
2018-10-18T11:31:55.207Z,1020.19
2018-10-18T11:32:54.675Z,1020.17
2018-10-18T11:33:54.401Z,1020.13
2018-10-18T11:34:54.404Z,1020.15
2018-10-18T11:35:54.621Z,1020.13
2018-10-18T11:36:54.579Z,1020.13
2018-10-18T11:37:54.705Z,1020.15
2018-10-18T11:38:54.455Z,1020.11
2018-10-18T11:39:54.271Z,1020.09
2018-10-18T11:40:54.259Z,1020.04
2018-10-18T11:41:54.820Z,1020.04
2018-10-18T11:42:54.313Z,1020.07
2018-10-18T11:43:54.380Z,1020.07
2018-10-18T11:44:54.866Z,1020.02
2018-10-18T11:45:55.024Z,1020.08
2018-10-18T11:46:54.700Z,1020.04
2018-10-18T11:47:54.576Z,1020.02
2018-10-18T11:48:54.414Z,1020.03
2018-10-18T11:49:54.835Z,1019.94
2018-10-18T11:50:54.444Z,1019.97
2018-10-18T11:51:54.704Z,1019.96
2018-10-18T11:52:54.534Z,1019.98
2018-10-18T11:53:54.825Z,1019.92
2018-10-18T11:54:54.734Z,1019.92
2018-10-18T11:55:54.539Z,1019.89
2018-10-18T11:56:54.643Z,1019.91
2018-10-18T11:57:54.350Z,1019.91
2018-10-18T11:58:54.790Z,1019.92
2018-10-18T11:59:54.664Z,1019.89
2018-10-18T12:00:54.325Z,1019.9
2018-10-18T12:01:54.536Z,1019.92
2018-10-18T12:02:54.677Z,1019.91
2018-10-18T12:03:54.330Z,1019.9
2018-10-18T12:04:54.897Z,1019.91
2018-10-18T12:05:54.310Z,1019.92
2018-10-18T12:06:54.649Z,1019.93
2018-10-18T12:07:54.816Z,1019.86
2018-10-18T12:08:54.221Z,1019.86